CheckWX is a tool to help pilots better visualize weather data.  It is not intended as a substitute for an official pre-flight weather briefing.

06:49:29 UTC

KCFJ METAR
Crawfordsville Municipal Airport
Crawfordsville, Indiana, USA
Current

14 mins ago

KCFJ 260635Z AUTO 24006KT 10SM SCT120 21/17 A3001 RMK AO2 T02080174
Observed
Jun-26 @ 06:35 UTC
Wind
  • 240° at 6 KTS
Visibility
10 SM
Flight Rules
VFR
Cloud Levels
  • Scattered at 12,000' AGL
Temperature
21°C / 70°F
Dewpoint
17°C / 63°F
Humidity
78%
Altimeter
30.01" Hg
Pressure
1016.22 hPa
Previous

34 mins ago

KCFJ 260615Z AUTO 25005KT 10SM CLR 22/17 A3001 RMK AO2 T02160172
Observed
Jun-26 @ 06:15 UTC
Wind
  • 250° at 5 KTS
Visibility
10 SM
Flight Rules
VFR
Cloud Levels
  • Clear skies
Temperature
22°C / 72°F
Dewpoint
17°C / 63°F
Humidity
73%
Altimeter
30.01" Hg
Pressure
1016.22 hPa
Previous

54 mins ago

KCFJ 260555Z AUTO 25009G17KT 10SM CLR 22/18 A3004 RMK AO2 T02170175 10256 20193
Observed
Jun-26 @ 05:55 UTC
Wind
  • 250° at 9 KTS
  • Gusting to 17 KTS
Visibility
10 SM
Flight Rules
VFR
Cloud Levels
  • Clear skies
Temperature
22°C / 72°F
Dewpoint
18°C / 64°F
Humidity
78%
Altimeter
30.04" Hg
Pressure
1017.32 hPa